Time;durP1;ratioP1;P1;durP2;ratioP2;P2;SDS_P1;SDS_P2;PMS_P1;PMS_P2;Temp;Humidity;BMP_temperature;BMP_pressure;BME280_temperature;BME280_humidity;BME280_pressure;Samples;Min_cycle;Max_cycle;Signal;HPM_P1;HPM_P2
2022/08/18 00:02:22;;;;;;;5.32;2.17;;;18.50;99.90;;;;;;5016547;28;20041;-78
2022/08/18 00:04:48;;;;;;;4.82;2.60;;;18.50;99.90;;;;;;5032880;28;20045;-76
2022/08/18 00:07:18;;;;;;;4.10;2.35;;;18.50;99.90;;;;;;5016426;28;20128;-76
2022/08/18 00:09:43;;;;;;;3.70;2.15;;;18.50;99.90;;;;;;5032723;28;20046;-70
2022/08/18 00:12:31;;;;;;;10.00;2.15;;;18.40;99.90;;;;;;5016105;28;20582;-70
2022/08/18 00:15:02;;;;;;;4.57;2.67;;;18.40;99.90;;;;;;5032693;28;20095;-79
2022/08/18 00:17:28;;;;;;;;;;;18.40;99.90;;;;;;5033255;28;20124;-76
2022/08/18 00:19:54;;;;;;;3.25;2.38;;;18.40;99.90;;;;;;5016383;28;19967;-76
2022/08/18 00:22:20;;;;;;;3.83;2.22;;;18.30;99.90;;;;;;5016059;28;20042;-70
2022/08/18 00:24:50;;;;;;;5.85;2.70;;;18.30;99.90;;;;;;5032420;28;20056;-70
2022/08/18 00:27:20;;;;;;;3.13;2.50;;;18.30;99.90;;;;;;5032223;28;20037;-78
2022/08/18 00:29:46;;;;;;;5.05;2.42;;;18.30;99.90;;;;;;5015893;28;20041;-76
2022/08/18 00:32:34;;;;;;;3.97;2.60;;;18.30;99.90;;;;;;5015862;28;20045;-75
2022/08/18 00:35:25;;;;;;;4.25;2.63;;;18.60;99.90;;;;;;5015964;28;20049;-71
2022/08/18 00:37:52;;;;;;;6.72;2.60;;;18.50;99.90;;;;;;5011335;28;20527;-70
2022/08/18 00:40:22;;;;;;;2.67;1.92;;;18.30;99.90;;;;;;5015613;28;20386;-76
2022/08/18 00:42:57;;;;;;;2.90;1.97;;;18.30;99.90;;;;;;5032256;28;20052;-76
2022/08/18 00:45:29;;;;;;;5.30;2.45;;;18.30;99.90;;;;;;5032106;28;20132;-76
2022/08/18 00:47:55;;;;;;;5.47;2.50;;;18.30;99.90;;;;;;5015896;28;20405;-70
2022/08/18 00:50:32;;;;;;;9.88;2.30;;;18.30;99.90;;;;;;5031918;28;20055;-76
2022/08/18 00:53:07;;;;;;;5.50;2.60;;;18.30;99.90;;;;;;5032031;28;20041;-76
2022/08/18 00:55:33;;;;;;;6.53;2.72;;;18.30;99.90;;;;;;5032046;28;20187;-76
2022/08/18 00:58:08;;;;;;;8.85;3.30;;;18.30;99.90;;;;;;5015489;28;20044;-76
2022/08/18 01:00:34;;;;;;;5.15;2.30;;;18.30;99.90;;;;;;5015749;28;20500;-75
2022/08/18 01:03:06;;;;;;;7.35;2.92;;;18.30;99.90;;;;;;5015648;28;20053;-75
2022/08/18 01:05:33;;;;;;;13.35;2.83;;;18.30;99.90;;;;;;5031868;28;20045;-70
2022/08/18 01:07:59;;;;;;;5.15;2.78;;;18.20;99.90;;;;;;5032178;28;20596;-75
2022/08/18 01:10:25;;;;;;;4.03;2.45;;;18.30;99.90;;;;;;5015915;28;20045;-70
2022/08/18 01:12:57;;;;;;;3.47;2.50;;;18.30;99.90;;;;;;5031723;28;20049;-78
2022/08/18 01:15:24;;;;;;;4.50;2.35;;;18.20;99.90;;;;;;5015653;28;20052;-79
2022/08/18 01:23:38;;;;;;;6.05;2.70;;;18.30;99.90;;;;;;5031714;28;20084;-75
2022/08/18 01:26:05;;;;;;;5.75;2.95;;;18.20;99.90;;;;;;5015320;28;20048;-75
2022/08/18 01:28:37;;;;;;;3.28;2.40;;;18.20;99.90;;;;;;4999092;28;20052;-76
2022/08/18 01:31:03;;;;;;;3.63;2.47;;;18.20;99.90;;;;;;5015378;28;20041;-72
2022/08/18 01:33:36;;;;;;;5.40;2.83;;;18.20;99.90;;;;;;5031839;28;20041;-76
2022/08/18 01:36:13;;;;;;;5.32;2.63;;;18.20;99.90;;;;;;5015398;28;20048;-76
2022/08/18 01:38:39;;;;;;;3.15;2.20;;;18.20;99.90;;;;;;5017533;28;20056;-76
2022/08/18 01:41:06;;;;;;;4.85;2.53;;;18.20;99.90;;;;;;5003146;28;20515;-76
2022/08/18 01:43:33;;;;;;;2.53;2.13;;;18.20;99.90;;;;;;5019314;28;20037;-76
2022/08/18 01:46:00;;;;;;;4.32;2.45;;;18.20;99.90;;;;;;5018928;28;20126;-78
2022/08/18 01:48:36;;;;;;;4.10;2.65;;;18.20;99.90;;;;;;5035316;28;20041;-76
2022/08/18 01:51:07;;;;;;;5.35;2.38;;;18.10;99.90;;;;;;5035541;28;20088;-75
2022/08/18 01:53:34;;;;;;;5.13;2.63;;;18.10;99.90;;;;;;5035547;28;20038;-78
2022/08/18 01:56:04;;;;;;;7.68;2.72;;;18.10;99.90;;;;;;5035320;28;20045;-70
2022/08/18 01:58:33;;;;;;;3.45;2.67;;;18.00;99.90;;;;;;5035522;28;20489;-76
2022/08/18 02:01:03;;;;;;;4.15;2.78;;;18.00;99.90;;;;;;5035208;28;20064;-70
2022/08/18 02:03:38;;;;;;;5.57;2.87;;;18.00;99.90;;;;;;5035349;28;20045;-70
2022/08/18 02:06:09;;;;;;;4.38;3.38;;;18.00;99.90;;;;;;5035018;28;20088;-76
2022/08/18 02:08:35;;;;;;;4.65;2.90;;;18.00;99.90;;;;;;5018770;28;20041;-76
2022/08/18 02:11:02;;;;;;;7.50;3.03;;;18.00;99.90;;;;;;5034964;28;20408;-76
2022/08/18 02:13:28;;;;;;;4.28;3.00;;;17.90;99.90;;;;;;5035198;28;20516;-76
2022/08/18 02:15:54;;;;;;;4.63;3.40;;;18.00;99.90;;;;;;5018682;28;20030;-76
2022/08/18 02:18:23;;;;;;;6.97;3.00;;;17.90;99.90;;;;;;5034775;28;20099;-75
2022/08/18 02:20:49;;;;;;;5.30;3.38;;;18.00;99.90;;;;;;5034805;28;20099;-76
2022/08/18 02:23:15;;;;;;;7.40;3.22;;;18.00;99.90;;;;;;5034812;28;20052;-78
2022/08/18 02:25:44;;;;;;;8.38;3.75;;;18.00;99.90;;;;;;5034937;28;20042;-76
2022/08/18 02:28:10;;;;;;;5.90;3.85;;;18.00;99.90;;;;;;5018344;28;20493;-70
2022/08/18 02:30:36;;;;;;;5.93;3.50;;;18.00;99.90;;;;;;5018075;28;20150;-75
2022/08/18 02:33:04;;;;;;;6.05;3.90;;;18.00;99.90;;;;;;5018626;28;20092;-75
2022/08/18 02:35:30;;;;;;;6.10;3.83;;;18.00;99.90;;;;;;5018380;28;20582;-78
2022/08/18 02:37:59;;;;;;;5.95;3.63;;;18.00;99.90;;;;;;5017950;28;20081;-78
2022/08/18 02:40:26;;;;;;;6.13;3.80;;;18.00;99.90;;;;;;5036147;28;20057;-75
2022/08/18 02:42:51;;;;;;;5.97;3.90;;;18.00;99.90;;;;;;5034846;28;20077;-78
2022/08/18 02:45:18;;;;;;;5.88;3.55;;;18.00;99.90;;;;;;5018022;28;20126;-76
2022/08/18 02:47:44;;;;;;;7.05;3.90;;;18.10;99.90;;;;;;5017813;28;20459;-76
2022/08/18 02:50:12;;;;;;;5.43;3.53;;;18.10;99.90;;;;;;5017521;28;20108;-70
2022/08/18 02:52:38;;;;;;;5.78;3.95;;;18.10;99.90;;;;;;5017740;28;20493;-76
2022/08/18 02:55:04;;;;;;;5.93;3.45;;;18.10;99.90;;;;;;5034126;28;20044;-76
2022/08/18 02:57:30;;;;;;;10.65;3.80;;;18.10;99.90;;;;;;5017689;28;20041;-76
2022/08/18 02:59:56;;;;;;;6.55;3.47;;;18.10;99.90;;;;;;5001293;28;20043;-75
2022/08/18 03:02:22;;;;;;;5.45;3.63;;;18.20;99.90;;;;;;5017583;28;20037;-76
2022/08/18 03:04:49;;;;;;;7.03;3.97;;;18.20;99.90;;;;;;5017474;28;20408;-76
2022/08/18 03:07:16;;;;;;;8.85;4.20;;;18.10;99.90;;;;;;5017643;28;20546;-70
2022/08/18 03:09:42;;;;;;;6.28;4.22;;;18.10;99.90;;;;;;5017863;28;20133;-76
2022/08/18 03:12:08;;;;;;;5.55;3.28;;;18.20;99.90;;;;;;5017485;28;20124;-76
2022/08/18 03:14:36;;;;;;;6.68;3.72;;;18.10;99.90;;;;;;5033865;28;20038;-70
2022/08/18 03:17:04;;;;;;;4.60;3.17;;;18.20;99.90;;;;;;5034029;28;20485;-70
2022/08/18 03:19:30;;;;;;;4.22;3.00;;;18.20;99.90;;;;;;5017176;28;20048;-76
2022/08/18 03:21:58;;;;;;;5.63;3.50;;;18.20;99.90;;;;;;5033552;28;20045;-75
2022/08/18 03:24:27;;;;;;;6.28;3.85;;;18.20;99.90;;;;;;5017426;28;20094;-78
2022/08/18 03:26:56;;;;;;;5.35;4.03;;;18.20;99.90;;;;;;5033566;28;20041;-70
2022/08/18 03:29:22;;;;;;;6.95;3.35;;;18.20;99.90;;;;;;5017311;28;20087;-76
2022/08/18 03:31:48;;;;;;;4.13;3.17;;;18.20;99.90;;;;;;5000709;28;20109;-70
2022/08/18 03:34:18;;;;;;;10.60;4.38;;;18.10;99.90;;;;;;5016906;28;20120;-76
2022/08/18 03:36:44;;;;;;;5.28;3.42;;;18.20;99.90;;;;;;5017235;28;20481;-77
2022/08/18 03:39:11;;;;;;;7.10;3.33;;;18.10;99.90;;;;;;5016621;28;20183;-76
2022/08/18 03:41:42;;;;;;;8.07;3.97;;;18.20;99.90;;;;;;5033539;28;20053;-78
2022/08/18 03:44:13;;;;;;;8.02;3.38;;;18.20;99.90;;;;;;5033383;28;20037;-71
2022/08/18 03:46:44;;;;;;;5.97;3.67;;;18.20;99.90;;;;;;5033239;28;20077;-76
2022/08/18 03:49:10;;;;;;;5.68;3.42;;;18.10;99.90;;;;;;5016955;28;20084;-78
2022/08/18 03:51:36;;;;;;;4.57;3.55;;;18.20;99.90;;;;;;5016628;28;20067;-76
2022/08/18 03:54:04;;;;;;;4.85;3.58;;;18.10;99.90;;;;;;5016559;28;20041;-78
2022/08/18 03:56:33;;;;;;;6.55;4.05;;;18.20;99.90;;;;;;5033071;28;20038;-76
2022/08/18 03:59:02;;;;;;;7.50;3.95;;;18.10;99.90;;;;;;5016745;28;20041;-78
2022/08/18 04:01:32;;;;;;;6.57;3.80;;;18.10;99.90;;;;;;5033354;28;20112;-76
2022/08/18 04:04:01;;;;;;;7.07;4.07;;;18.10;99.90;;;;;;5016705;28;20091;-70
2022/08/18 04:06:49;;;;;;;7.10;3.63;;;18.10;99.90;;;;;;5033078;28;20045;-78
2022/08/18 04:09:15;;;;;;;9.60;4.00;;;18.10;99.90;;;;;;5016313;28;20041;-77
2022/08/18 04:11:43;;;;;;;6.15;3.92;;;18.10;99.90;;;;;;5032743;28;20042;-70
2022/08/18 04:14:16;;;;;;;6.38;3.63;;;18.10;99.90;;;;;;5032914;28;20129;-75
2022/08/18 04:16:42;;;;;;;8.88;4.63;;;18.10;99.90;;;;;;5016143;28;20080;-78
2022/08/18 04:19:12;;;;;;;7.82;4.10;;;18.10;99.90;;;;;;5016269;28;20471;-76
2022/08/18 04:21:40;;;;;;;5.18;3.92;;;18.10;99.90;;;;;;5032553;28;20046;-75
2022/08/18 04:24:07;;;;;;;8.13;4.50;;;18.10;99.90;;;;;;5016602;28;20077;-70
2022/08/18 04:26:39;;;;;;;9.70;4.38;;;18.10;99.90;;;;;;4999604;28;20057;-76
2022/08/18 04:29:05;;;;;;;5.63;3.95;;;18.10;99.90;;;;;;5032438;28;20122;-78
2022/08/18 04:31:31;;;;;;;5.28;3.50;;;18.10;99.90;;;;;;5032358;28;20428;-78
2022/08/18 04:33:59;;;;;;;7.40;4.68;;;18.10;99.90;;;;;;5032282;28;20037;-79
2022/08/18 04:36:26;;;;;;;9.13;3.90;;;18.10;99.90;;;;;;5032330;28;20041;-76
2022/08/18 04:38:52;;;;;;;6.45;3.80;;;18.10;99.90;;;;;;5032135;28;20076;-75
2022/08/18 04:41:18;;;;;;;8.68;4.40;;;18.10;99.90;;;;;;5015987;28;20055;-70
2022/08/18 04:43:45;;;;;;;7.68;4.45;;;18.10;99.90;;;;;;5015748;28;20038;-78
2022/08/18 04:46:11;;;;;;;7.45;4.05;;;18.10;99.90;;;;;;5016199;28;20053;-76
2022/08/18 04:48:39;;;;;;;8.57;4.50;;;18.00;99.90;;;;;;4999433;28;20045;-70
2022/08/18 04:51:14;;;;;;;6.22;3.53;;;18.10;99.90;;;;;;5015534;28;20053;-77
2022/08/18 04:53:44;;;;;;;7.50;4.20;;;18.10;99.90;;;;;;5015554;28;20076;-70
2022/08/18 04:56:26;;;;;;;5.53;4.33;;;18.10;99.90;;;;;;4999928;28;20040;-70
2022/08/18 04:58:53;;;;;;;7.60;4.05;;;18.10;99.90;;;;;;5031955;28;20099;-76
2022/08/18 05:01:22;;;;;;;9.38;3.83;;;18.10;99.90;;;;;;5031839;28;20080;-78
2022/08/18 05:03:49;;;;;;;4.65;3.30;;;18.10;99.90;;;;;;5031853;28;20045;-75
2022/08/18 05:06:15;;;;;;;6.38;3.22;;;18.10;99.90;;;;;;5031813;28;20120;-75
2022/08/18 05:08:41;;;;;;;10.82;3.97;;;18.20;99.90;;;;;;5015404;28;20042;-76
2022/08/18 05:11:08;;;;;;;6.75;3.83;;;18.20;99.90;;;;;;5031441;28;20045;-79
2022/08/18 05:13:34;;;;;;;8.27;3.60;;;18.10;99.90;;;;;;5015628;28;20030;-70
2022/08/18 05:16:02;;;;;;;5.00;3.40;;;18.10;99.90;;;;;;5015379;28;20087;-77
2022/08/18 05:18:32;;;;;;;9.18;3.20;;;18.10;99.90;;;;;;5015705;28;20041;-78
2022/08/18 05:20:59;;;;;;;5.63;3.40;;;18.20;99.90;;;;;;5015532;28;20048;-70
2022/08/18 05:23:26;;;;;;;6.68;3.10;;;18.20;99.90;;;;;;5015457;28;20393;-80
2022/08/18 05:26:02;;;;;;;6.18;3.08;;;18.10;99.90;;;;;;5015197;28;20042;-71
2022/08/18 05:28:29;;;;;;;4.45;3.25;;;18.20;99.90;;;;;;5032661;28;20037;-80
2022/08/18 05:30:55;;;;;;;4.15;2.78;;;18.20;99.90;;;;;;4999395;28;20409;-71
2022/08/18 05:33:21;;;;;;;7.85;2.97;;;18.20;99.90;;;;;;5015559;28;20087;-73
2022/08/18 05:35:53;;;;;;;5.40;3.47;;;18.30;99.90;;;;;;5015743;28;20492;-70
2022/08/18 05:38:34;;;;;;;6.80;3.63;;;18.30;99.90;;;;;;5015084;28;20041;-82
2022/08/18 05:41:21;;;;;;;8.93;3.50;;;18.30;99.90;;;;;;5071815;28;20056;-82
2022/08/18 05:43:47;;;;;;;4.65;3.35;;;18.40;99.90;;;;;;5055334;28;20488;-70
2022/08/18 05:46:15;;;;;;;6.78;3.85;;;18.40;99.90;;;;;;5038420;28;20089;-70
2022/08/18 05:48:41;;;;;;;10.10;3.83;;;18.50;99.90;;;;;;5054769;28;20044;-70
2022/08/18 05:51:17;;;;;;;6.30;4.53;;;18.50;99.90;;;;;;5022224;28;20515;-74
2022/08/18 05:56:47;;;;;;;4.95;3.13;;;18.60;99.90;;;;;;5009884;28;20125;-71
2022/08/18 05:59:21;;;;;;;5.88;3.05;;;18.60;99.90;;;;;;5054693;28;20403;-71
2022/08/18 06:01:55;;;;;;;6.22;3.20;;;18.40;99.90;;;;;;5038029;28;20040;-70
2022/08/18 06:04:37;;;;;;;6.18;3.13;;;18.80;99.90;;;;;;5054794;28;20138;-75
2022/08/18 06:07:07;;;;;;;4.78;2.90;;;18.70;99.90;;;;;;5037991;28;20063;-73
2022/08/18 06:09:49;;;;;;;8.85;3.58;;;18.70;99.90;;;;;;5038010;28;20047;-80
2022/08/18 06:12:23;;;;;;;4.60;3.33;;;18.70;99.90;;;;;;5054547;28;20109;-82
2022/08/18 06:14:50;;;;;;;6.32;3.53;;;18.70;99.90;;;;;;5038342;28;20066;-74
2022/08/18 06:17:15;;;;;;;6.47;3.40;;;18.70;99.90;;;;;;5055147;28;20123;-74
2022/08/18 06:19:49;;;;;;;5.15;3.15;;;18.60;99.90;;;;;;5054697;28;20166;-77
2022/08/18 06:22:35;;;;;;;6.80;3.17;;;18.70;99.90;;;;;;5038009;28;20072;-77
2022/08/18 06:25:29;;;;;;;7.75;3.40;;;18.70;99.90;;;;;;5059454;28;20084;-68
2022/08/18 06:28:04;;;;;;;5.55;3.70;;;18.90;99.90;;;;;;5058766;28;20049;-81
2022/08/18 06:30:56;;;;;;;7.47;3.80;;;18.70;99.90;;;;;;5041781;28;20043;-75
2022/08/18 06:33:30;;;;;;;5.93;3.58;;;18.80;99.90;;;;;;5058957;28;20067;-68
2022/08/18 06:36:12;;;;;;;5.82;3.60;;;18.90;99.90;;;;;;5042050;28;20093;-80
2022/08/18 06:39:01;;;;;;;8.60;3.47;;;19.00;99.90;;;;;;5042780;28;20040;-76
2022/08/18 06:41:41;;;;;;;4.93;3.38;;;18.80;99.90;;;;;;5057802;28;20044;-80
2022/08/18 06:44:37;;;;;;;5.60;3.63;;;18.90;99.90;;;;;;5057724;28;20464;-75
2022/08/18 06:47:35;;;;;;;4.72;2.92;;;18.90;99.90;;;;;;5061514;28;20086;-75
2022/08/18 06:50:20;;;;;;;5.80;3.83;;;18.90;99.90;;;;;;4997320;28;20048;-70
2022/08/18 06:52:57;;;;;;;6.53;3.22;;;18.90;99.90;;;;;;5057275;28;20033;-74
2022/08/18 06:55:36;;;;;;;5.40;3.50;;;19.00;99.90;;;;;;5057215;28;20090;-74
2022/08/18 06:58:18;;;;;;;6.18;3.80;;;18.90;99.90;;;;;;5057067;28;20041;-68
2022/08/18 07:01:05;;;;;;;6.13;3.22;;;18.90;99.90;;;;;;5057113;28;20037;-67
2022/08/18 07:03:45;;;;;;;5.20;3.60;;;18.90;99.90;;;;;;5056886;28;20040;-73
2022/08/18 07:06:27;;;;;;;4.87;3.07;;;19.20;99.90;;;;;;5057059;28;20113;-69
2022/08/18 07:08:54;;;;;;;7.95;3.28;;;19.00;99.90;;;;;;5057222;28;20279;-78
2022/08/18 07:11:27;;;;;;;4.18;2.88;;;19.00;99.90;;;;;;5040611;28;20517;-72
2022/08/18 07:13:55;;;;;;;4.90;3.20;;;19.10;99.90;;;;;;5041558;28;20044;-70
2022/08/18 07:16:27;;;;;;;4.95;3.20;;;19.00;99.90;;;;;;5057084;28;20052;-71
2022/08/18 07:18:53;;;;;;;7.07;3.13;;;19.00;99.90;;;;;;5057058;28;20068;-73
2022/08/18 07:21:29;;;;;;;5.88;2.75;;;19.10;99.90;;;;;;5056964;28;20040;-73
2022/08/18 07:24:06;;;;;;;4.85;2.95;;;19.10;99.90;;;;;;5056867;28;20083;-72
2022/08/18 07:27:01;;;;;;;4.15;2.97;;;19.40;99.90;;;;;;5040297;28;20127;-70
2022/08/18 07:29:29;;;;;;;3.35;2.58;;;19.20;99.90;;;;;;5033265;28;20131;-73
2022/08/18 07:31:58;;;;;;;4.47;2.72;;;19.40;99.90;;;;;;5039976;28;20048;-74
2022/08/18 07:34:36;;;;;;;3.83;2.47;;;19.30;99.90;;;;;;5056604;28;20141;-70
2022/08/18 07:37:16;;;;;;;4.13;2.58;;;19.40;99.90;;;;;;5056557;28;20076;-76
2022/08/18 07:40:01;;;;;;;;;;;19.50;99.90;;;;;;5056936;28;20059;-74
2022/08/18 07:42:55;;;;;;;3.42;2.22;;;19.70;99.90;;;;;;5073182;28;19939;-74
2022/08/18 07:45:35;;;;;;;7.20;2.60;;;19.80;99.90;;;;;;5056427;28;20499;-76
2022/08/18 07:48:09;;;;;;;3.70;2.70;;;19.90;99.90;;;;;;5056745;28;20522;-69
2022/08/18 07:50:51;;;;;;;3.22;2.33;;;20.00;99.90;;;;;;5056324;28;20399;-78
2022/08/18 07:53:34;;;;;;;3.33;1.95;;;20.10;99.90;;;;;;5056219;28;20103;-74
2022/08/18 07:56:24;;;;;;;3.63;1.98;;;19.90;99.90;;;;;;5039856;28;20060;-74
2022/08/18 07:59:02;;;;;;;3.38;1.70;;;19.90;99.90;;;;;;5032293;28;20040;-78
2022/08/18 08:01:42;;;;;;;2.88;1.80;;;19.80;99.90;;;;;;5056452;28;20500;-70
2022/08/18 08:04:47;;;;;;;4.00;1.88;;;19.70;99.90;;;;;;5056440;28;20036;-77
2022/08/18 08:07:23;;;;;;;5.70;1.77;;;19.70;99.90;;;;;;5039000;28;20052;-78
2022/08/18 08:10:23;;;;;;;2.90;1.70;;;19.70;99.90;;;;;;5055956;28;20036;-75
2022/08/18 08:12:49;;;;;;;;;;;19.70;99.90;;;;;;5056294;28;20109;-70
2022/08/18 08:15:44;;;;;;;5.15;1.92;;;19.70;99.90;;;;;;5055860;28;19917;-70
2022/08/18 08:18:40;;;;;;;2.28;1.70;;;19.70;99.90;;;;;;5039326;28;20090;-78
2022/08/18 08:21:13;;;;;;;4.50;1.80;;;19.70;99.90;;;;;;5055834;28;20049;-70
2022/08/18 08:24:22;;;;;;;5.55;1.60;;;19.80;99.90;;;;;;5056062;28;20048;-81
2022/08/18 08:26:57;;;;;;;1.85;1.23;;;19.70;99.90;;;;;;5039156;28;20094;-81
2022/08/18 08:29:34;;;;;;;3.25;1.80;;;19.70;99.90;;;;;;5055626;28;20112;-75
2022/08/18 08:32:05;;;;;;;1.77;1.30;;;19.70;99.90;;;;;;5055697;28;20051;-75
2022/08/18 08:34:49;;;;;;;2.05;1.25;;;19.80;99.90;;;;;;5055827;28;20040;-80
2022/08/18 08:37:44;;;;;;;4.43;1.75;;;19.80;99.90;;;;;;5038891;28;20043;-80
2022/08/18 08:40:55;;;;;;;3.88;1.70;;;19.80;99.90;;;;;;5055440;28;20408;-71
2022/08/18 08:43:33;;;;;;;3.30;1.20;;;19.90;99.90;;;;;;5049243;28;20052;-81
2022/08/18 08:46:20;;;;;;;2.25;1.40;;;19.90;99.90;;;;;;5038397;28;20127;-79
2022/08/18 08:48:55;;;;;;;3.33;1.75;;;20.10;99.90;;;;;;5055495;28;20043;-71
2022/08/18 08:51:21;;;;;;;1.95;1.00;;;20.10;99.90;;;;;;5055266;28;20048;-81
2022/08/18 08:53:52;;;;;;;1.45;0.95;;;20.20;99.90;;;;;;5039268;28;20382;-81
2022/08/18 08:56:20;;;;;;;5.03;1.73;;;20.30;99.90;;;;;;5038595;28;20037;-80
2022/08/18 08:58:59;;;;;;;2.35;1.02;;;20.70;99.90;;;;;;5055177;28;20445;-81
2022/08/18 09:01:59;;;;;;;3.13;1.40;;;20.40;99.90;;;;;;5038550;28;20079;-81
2022/08/18 09:04:39;;;;;;;2.05;1.27;;;20.60;99.90;;;;;;5041131;28;20165;-70
2022/08/18 09:07:31;;;;;;;1.60;1.05;;;20.40;99.90;;;;;;5038744;28;20400;-78
2022/08/18 09:11:01;;;;;;;1.85;0.90;;;20.40;99.90;;;;;;5038448;28;20067;-78
2022/08/18 09:13:32;;;;;;;2.03;1.17;;;20.70;99.90;;;;;;4976595;28;20061;-70
2022/08/18 09:16:15;;;;;;;2.30;1.08;;;20.60;99.90;;;;;;4991798;28;20422;-74
2022/08/18 09:19:17;;;;;;;4.00;1.27;;;20.60;99.90;;;;;;5043232;28;20045;-74
2022/08/18 09:22:08;;;;;;;2.58;1.08;;;20.70;99.90;;;;;;5038339;28;20079;-71
2022/08/18 09:24:46;;;;;;;1.48;0.98;;;20.60;99.90;;;;;;5038386;28;20045;-70
2022/08/18 09:27:40;;;;;;;6.15;1.38;;;20.40;99.90;;;;;;5038284;28;20054;-80
2022/08/18 09:30:27;;;;;;;0.82;0.77;;;20.70;99.90;;;;;;5054935;28;20127;-79
2022/08/18 09:33:28;;;;;;;1.42;1.10;;;20.80;99.90;;;;;;5054583;28;20080;-78
2022/08/18 09:36:35;;;;;;;2.35;1.10;;;20.60;99.90;;;;;;5055130;28;20506;-80
2022/08/18 09:42:29;;;;;;;1.85;0.73;;;21.20;99.90;;;;;;5054756;28;20040;-77
2022/08/18 09:44:54;;;;;;;1.95;1.08;;;21.30;99.90;;;;;;5055017;28;20090;-79
2022/08/18 09:47:20;;;;;;;2.58;0.80;;;21.30;99.90;;;;;;5054693;28;20040;-78
2022/08/18 09:49:57;;;;;;;3.55;1.20;;;21.40;99.90;;;;;;5054744;28;20045;-70
2022/08/18 09:52:25;;;;;;;0.80;0.60;;;21.40;99.90;;;;;;5055078;28;20049;-76
2022/08/18 09:54:59;;;;;;;1.40;0.98;;;21.40;99.90;;;;;;5054602;28;20166;-80
2022/08/18 09:57:30;;;;;;;1.73;0.80;;;21.40;99.90;;;;;;5038267;28;20488;-70
2022/08/18 10:00:07;;;;;;;2.50;1.00;;;21.30;99.90;;;;;;5041003;28;20083;-79
2022/08/18 10:02:35;;;;;;;1.80;0.93;;;21.30;99.90;;;;;;5041756;28;20047;-80
2022/08/18 10:05:19;;;;;;;3.65;1.20;;;21.20;99.90;;;;;;5058607;28;20495;-77
2022/08/18 10:08:02;;;;;;;0.90;0.70;;;21.00;99.90;;;;;;5058375;28;20049;-76
2022/08/18 10:10:57;;;;;;;1.77;0.90;;;21.00;99.90;;;;;;5041712;28;20446;-77
2022/08/18 10:13:40;;;;;;;1.30;0.98;;;20.90;99.90;;;;;;5058240;28;20051;-79
2022/08/18 10:16:40;;;;;;;1.55;1.05;;;20.90;99.90;;;;;;5041588;28;20041;-78
2022/08/18 10:19:28;;;;;;;3.33;0.93;;;21.00;99.90;;;;;;5055272;28;20076;-81
2022/08/18 10:21:54;;;;;;;1.90;0.95;;;21.10;99.90;;;;;;5041629;28;20045;-77
2022/08/18 10:24:27;;;;;;;1.10;0.80;;;21.20;99.90;;;;;;5058190;28;20056;-74
2022/08/18 10:26:55;;;;;;;0.80;0.77;;;21.20;99.90;;;;;;5058259;28;20036;-76
2022/08/18 10:29:27;;;;;;;1.75;1.20;;;21.20;99.90;;;;;;5057968;28;20052;-73
2022/08/18 10:31:56;;;;;;;3.97;1.20;;;21.20;99.90;;;;;;5057969;28;20044;-73
2022/08/18 10:34:39;;;;;;;2.33;0.95;;;21.20;99.90;;;;;;5041428;28;20040;-74
2022/08/18 10:37:32;;;;;;;1.40;1.00;;;21.20;99.90;;;;;;5041070;28;20095;-75
2022/08/18 10:40:12;;;;;;;2.55;0.90;;;21.20;99.90;;;;;;5042769;28;20053;-75
2022/08/18 10:42:40;;;;;;;2.05;0.95;;;21.30;99.90;;;;;;5034481;28;20386;-76
2022/08/18 10:45:08;;;;;;;2.80;1.33;;;21.20;99.90;;;;;;5034676;28;20037;-73
2022/08/18 10:47:35;;;;;;;1.17;1.00;;;21.30;99.90;;;;;;5034295;28;20053;-76
2022/08/18 10:50:08;;;;;;;1.25;0.95;;;21.20;99.90;;;;;;5034285;28;20048;-69
2022/08/18 10:52:54;;;;;;;1.92;0.95;;;21.30;99.90;;;;;;5034221;28;20052;-69
2022/08/18 10:55:44;;;;;;;1.73;0.90;;;21.20;99.90;;;;;;5017699;28;20115;-73
2022/08/18 10:58:27;;;;;;;0.63;0.60;;;21.20;99.90;;;;;;5034197;28;20088;-69
2022/08/18 11:01:24;;;;;;;1.20;0.98;;;21.20;99.90;;;;;;5034116;28;20122;-74
2022/08/18 11:03:52;;;;;;;0.65;0.57;;;21.20;99.90;;;;;;5034211;28;20139;-76
2022/08/18 11:06:26;;;;;;;1.13;0.95;;;21.20;99.90;;;;;;5017627;28;20092;-76
2022/08/18 11:08:56;;;;;;;1.75;1.05;;;21.30;99.90;;;;;;5017450;28;20091;-77
2022/08/18 11:11:26;;;;;;;1.23;1.00;;;21.40;99.90;;;;;;5017518;28;20446;-75
2022/08/18 11:14:22;;;;;;;1.75;1.05;;;21.40;99.90;;;;;;5017439;28;20048;-70
2022/08/18 11:17:12;;;;;;;1.55;0.75;;;21.50;99.90;;;;;;5017316;28;20045;-77
2022/08/18 11:19:40;;;;;;;1.10;0.90;;;21.80;99.90;;;;;;5017830;28;20091;-70
2022/08/18 11:22:27;;;;;;;1.88;1.23;;;21.80;99.90;;;;;;5033679;28;20294;-71
2022/08/18 11:24:53;;;;;;;1.00;0.82;;;21.90;99.90;;;;;;5017268;28;20042;-78
2022/08/18 11:27:25;;;;;;;1.73;1.13;;;22.00;99.90;;;;;;5033461;28;20041;-80
2022/08/18 11:29:52;;;;;;;3.30;1.05;;;22.00;99.90;;;;;;5017140;28;20045;-75
2022/08/18 11:32:32;;;;;;;1.60;1.00;;;22.00;99.90;;;;;;5033430;28;20045;-70
2022/08/18 11:34:58;;;;;;;2.85;1.15;;;21.90;99.90;;;;;;5033476;28;20043;-78
2022/08/18 11:37:49;;;;;;;1.17;0.90;;;21.90;99.90;;;;;;5016874;28;20075;-75
2022/08/18 11:40:17;;;;;;;1.33;1.13;;;21.80;99.90;;;;;;5033345;28;20061;-80
2022/08/18 11:42:52;;;;;;;2.28;1.10;;;21.80;99.90;;;;;;5033546;28;20550;-79
2022/08/18 11:45:22;;;;;;;2.05;1.00;;;21.90;99.90;;;;;;5016718;28;20405;-76
2022/08/18 11:48:16;;;;;;;2.22;1.00;;;21.90;99.90;;;;;;5033454;28;20053;-76
2022/08/18 11:51:07;;;;;;;4.07;0.90;;;21.90;99.90;;;;;;5033122;28;20420;-76
2022/08/18 11:53:41;;;;;;;1.63;0.90;;;21.80;99.90;;;;;;5033040;28;20099;-70
2022/08/18 11:56:19;;;;;;;2.15;1.08;;;21.80;99.90;;;;;;5016535;28;20042;-77
2022/08/18 11:59:05;;;;;;;2.03;1.17;;;21.90;99.90;;;;;;5016580;28;20037;-78
2022/08/18 12:01:34;;;;;;;1.38;0.88;;;22.10;99.90;;;;;;5033026;28;20443;-77
2022/08/18 12:04:22;;;;;;;0.85;0.60;;;22.40;99.90;;;;;;5033253;28;20052;-77
2022/08/18 12:06:54;;;;;;;1.67;1.13;;;22.60;99.90;;;;;;5016419;28;20045;-79
2022/08/18 12:09:46;;;;;;;1.95;0.90;;;22.70;99.90;;;;;;5033040;28;20053;-70
2022/08/18 12:12:23;;;;;;;0.98;0.88;;;22.80;99.90;;;;;;5032715;28;20128;-76
2022/08/18 12:15:03;;;;;;;2.13;1.00;;;22.70;99.90;;;;;;5032762;28;20053;-77
2022/08/18 12:17:30;;;;;;;2.00;1.02;;;22.70;99.90;;;;;;5032649;28;20048;-78
2022/08/18 12:19:57;;;;;;;1.70;1.23;;;22.70;99.90;;;;;;5032881;28;20045;-77
2022/08/18 12:22:30;;;;;;;1.10;1.00;;;22.60;99.90;;;;;;5031733;28;20048;-70
2022/08/18 12:24:57;;;;;;;4.65;1.30;;;22.30;99.90;;;;;;5016128;28;20057;-79
2022/08/18 12:27:25;;;;;;;1.42;1.20;;;22.20;99.90;;;;;;5032558;28;20136;-79
2022/08/18 12:29:54;;;;;;;2.70;1.20;;;22.20;99.90;;;;;;5032430;28;20041;-77
2022/08/18 12:32:21;;;;;;;2.20;1.10;;;22.20;99.90;;;;;;5015985;28;20093;-71
2022/08/18 12:34:48;;;;;;;2.72;1.20;;;22.20;99.90;;;;;;5032581;28;20037;-78
2022/08/18 12:37:21;;;;;;;1.70;1.00;;;22.20;99.90;;;;;;5032303;28;20038;-78
2022/08/18 12:39:46;;;;;;;7.53;1.88;;;22.20;99.90;;;;;;5032194;28;20060;-82
2022/08/18 12:42:13;;;;;;;2.67;1.70;;;22.20;99.90;;;;;;5015816;28;20049;-71
2022/08/18 12:44:40;;;;;;;2.20;1.25;;;22.20;99.90;;;;;;5015989;28;20045;-80
2022/08/18 12:47:21;;;;;;;1.45;0.82;;;22.40;99.90;;;;;;5032074;28;20492;-71
2022/08/18 12:49:47;;;;;;;2.30;1.08;;;22.40;99.90;;;;;;5032167;28;20084;-78
2022/08/18 12:52:14;;;;;;;1.45;1.00;;;22.60;99.90;;;;;;5015757;28;20124;-79
2022/08/18 12:54:42;;;;;;;2.90;1.48;;;22.90;99.90;;;;;;5032282;28;20103;-77
2022/08/18 12:57:31;;;;;;;1.00;0.90;;;23.20;99.90;;;;;;5032053;28;20049;-71
2022/08/18 12:59:57;;;;;;;1.42;1.10;;;23.20;99.90;;;;;;5031444;28;20049;-77
2022/08/18 13:02:23;;;;;;;2.05;0.93;;;23.30;99.90;;;;;;4999392;28;20404;-79
2022/08/18 13:04:48;;;;;;;1.48;1.08;;;23.20;99.90;;;;;;5015459;28;20049;-79
2022/08/18 13:07:14;;;;;;;1.65;1.00;;;23.20;99.90;;;;;;5031961;28;20405;-71
2022/08/18 13:09:40;;;;;;;1.63;1.00;;;23.30;99.90;;;;;;5015587;28;20411;-71
2022/08/18 13:12:08;;;;;;;2.00;1.00;;;23.20;99.90;;;;;;5031718;28;20099;-77
2022/08/18 13:14:34;;;;;;;3.33;1.08;;;23.20;99.90;;;;;;5031730;28;20048;-76
2022/08/18 13:17:00;;;;;;;2.08;1.23;;;23.10;99.90;;;;;;5032108;28;20397;-76
2022/08/18 13:19:25;;;;;;;1.80;0.93;;;23.10;99.90;;;;;;5015439;28;20040;-79
2022/08/18 13:21:51;;;;;;;2.67;1.40;;;23.10;99.90;;;;;;5015319;28;20037;-70
2022/08/18 13:24:17;;;;;;;1.83;1.15;;;23.10;99.90;;;;;;5031652;28;20107;-79
2022/08/18 13:26:45;;;;;;;1.50;0.90;;;23.10;99.90;;;;;;5031794;28;20053;-71
2022/08/18 13:29:13;;;;;;;1.85;1.08;;;23.20;99.90;;;;;;5031618;28;20037;-78
2022/08/18 13:31:38;;;;;;;2.20;1.23;;;22.90;99.90;;;;;;5031761;28;20168;-72
2022/08/18 13:34:06;;;;;;;2.03;1.23;;;22.90;99.90;;;;;;5018681;28;20436;-79
2022/08/18 13:36:44;;;;;;;1.65;1.00;;;22.90;99.90;;;;;;5019439;28;20037;-78